CVH7 weather

Vulcan (Hospital) Heliport
Vulcan, Alberta, Canada

Public forecast

Using degrees Celsius for public forecast. Weather courtesy of forecast.io.

METAR (pilot weather report)

Closest report is Lethbridge County Airport, 49.3 nm (91.2 km) SSE. Retrieved 2019/08/20 23:00 UTC (31 minutes ago):

CYQL 202300Z 12007G15KT 60SM FEW070 SCT300 28/09 A3005 RMK CU1CI2 SLP173 DENSITY ALT 5100FT

TAF (pilot weather forecast)

Closest forecast is Lethbridge County Airport, 49.3 nm (91.2 km) SSE. Retrieved 2019/08/20 18:39 UTC (5 hours ago):

TAF CYQL 201738Z 2018/2106 09005KT P6SM BKN300 FM202000 10010KT P6SM FEW060 RMK NXT FCST BY 210000Z